ESSB

Stockholm-Bromma Airport

Stockholm, Sweden
METAR ESSB 181950Z 25006KT CAVOK M06/M08 Q1007 R12/19//76
Observed Flight Rules
Jan-18 @ 19:50 UTC (16 minutes ago) Visual Flight Rules
Wind Visibility Clouds
250° at 6 knots 10,000+ meters
  • Clear skies
Temperatures Readings
Current -6°C / 21°F
Dewpoint -8°C / 18°F
Humidity 86%
Altimeter 29.73" Hg
Pressure 1006.92 hPa
Elevation 11
METAR ESSB 181950Z 25006KT CAVOK M06/M08 Q1007 R12/19//76
Observed Flight Rules
Jan-18 @ 19:50 UTC
(16 minutes ago)
VFR
Wind Visibility
250° at 6 knots 10,000+ meters
Clouds
  • Clear skies
Temperature Dewpoint
-6°C / 21°F -8°C / 18°F
Humidity Altimeter Pressure
86% 29.73" Hg 1006.92 hPa